createdAt,value
2022-08-05T00:01:56.898Z,101534.44
2022-08-05T00:04:38.116Z,101544.28
2022-08-05T00:07:26.789Z,101546.00
2022-08-05T00:09:59.952Z,101536.25
2022-08-05T00:12:29.673Z,101534.44
2022-08-05T00:15:58.258Z,101537.97
2022-08-05T00:17:51.678Z,101536.22
2022-08-05T00:20:22.049Z,101529.97
2022-08-05T00:23:02.557Z,101515.72
2022-08-05T00:25:46.099Z,101505.91
2022-08-05T00:28:16.103Z,101513.94
2022-08-05T00:31:04.255Z,101517.50
2022-08-05T00:34:55.858Z,101514.81
2022-08-05T00:37:13.074Z,101519.28
2022-08-05T00:39:14.805Z,101499.66
2022-08-05T00:41:55.211Z,101507.69
2022-08-05T00:44:30.826Z,101505.00
2022-08-05T00:47:05.890Z,101497.00
2022-08-05T00:49:44.665Z,101491.63
2022-08-05T00:52:28.342Z,101489.88
2022-08-05T00:54:59.059Z,101489.88
2022-08-05T00:57:31.807Z,101484.50
2022-08-05T01:00:10.996Z,101495.19
2022-08-05T01:02:43.613Z,101490.72
2022-08-05T01:05:13.812Z,101493.34
2022-08-05T01:08:39.878Z,101499.56
2022-08-05T01:10:39.751Z,101506.66
2022-08-05T01:13:57.118Z,101512.88
2022-08-05T01:16:26.458Z,101507.56
2022-08-05T01:19:07.051Z,101503.13
2022-08-05T01:21:54.110Z,101501.34
2022-08-05T01:24:44.002Z,101506.66
2022-08-05T01:27:28.437Z,101520.03
2022-08-05T01:30:12.450Z,101522.69
2022-08-05T01:32:51.506Z,101529.84
2022-08-05T01:35:52.107Z,101521.81
2022-08-05T01:38:24.767Z,101530.72
2022-08-05T01:41:01.907Z,101519.16
2022-08-05T01:43:32.532Z,101523.59
2022-08-05T01:46:07.543Z,101540.53
2022-08-05T01:48:49.591Z,101539.66
2022-08-05T01:51:21.688Z,101522.72
2022-08-05T01:53:58.535Z,101508.47
2022-08-05T01:58:11.544Z,101512.06
2022-08-05T01:59:26.451Z,101511.16
2022-08-05T02:02:01.663Z,101510.31
2022-08-05T02:04:36.907Z,101505.88
2022-08-05T02:07:10.464Z,101506.75
2022-08-05T02:09:51.598Z,101509.41
2022-08-05T02:12:28.508Z,101512.94
2022-08-05T02:15:12.302Z,101506.72
2022-08-05T02:18:31.343Z,101512.91
2022-08-05T02:20:48.928Z,101508.47
2022-08-05T02:23:23.144Z,101505.78
2022-08-05T02:25:55.137Z,101510.25
2022-08-05T02:28:31.237Z,101506.69
2022-08-05T02:31:14.352Z,101498.66
2022-08-05T02:33:57.215Z,101504.88
2022-08-05T02:36:31.451Z,101496.84
2022-08-05T02:39:04.651Z,101505.78
2022-08-05T02:41:43.424Z,101514.66
2022-08-05T02:44:31.205Z,101519.09
2022-08-05T02:47:02.047Z,101521.72
2022-08-05T02:49:40.582Z,101521.72
2022-08-05T02:52:25.911Z,101530.59
2022-08-05T02:55:05.164Z,101534.13
2022-08-05T02:58:09.763Z,101532.34
2022-08-05T03:00:27.094Z,101535.00
2022-08-05T03:02:59.340Z,101534.13
2022-08-05T03:06:54.481Z,101536.75
2022-08-05T03:08:27.020Z,101530.56
2022-08-05T03:11:45.949Z,101526.97
2022-08-05T03:13:52.223Z,101535.88
2022-08-05T03:16:32.521Z,101534.06
2022-08-05T03:19:16.855Z,101534.06
2022-08-05T03:21:52.584Z,101550.94
2022-08-05T03:24:26.856Z,101549.16
2022-08-05T03:27:00.214Z,101552.69
2022-08-05T03:29:45.894Z,101546.50
2022-08-05T03:32:21.431Z,101540.25
2022-08-05T03:35:01.368Z,101534.03
2022-08-05T03:37:45.649Z,101541.09
2022-08-05T03:40:24.219Z,101529.50
2022-08-05T03:43:58.270Z,101525.03
2022-08-05T03:45:57.347Z,101527.69
2022-08-05T03:48:29.189Z,101517.91
2022-08-05T03:51:06.954Z,101519.66
2022-08-05T03:55:50.017Z,101524.97
2022-08-05T03:56:52.671Z,101525.84
2022-08-05T03:59:29.234Z,101525.75
2022-08-05T04:02:39.153Z,101524.81
2022-08-05T04:05:10.326Z,101521.22
2022-08-05T04:07:58.778Z,101519.41
2022-08-05T04:10:37.729Z,101517.63
2022-08-05T04:13:09.298Z,101519.41
2022-08-05T04:15:39.562Z,101503.38
2022-08-05T04:18:29.759Z,101506.06
2022-08-05T04:21:00.839Z,101506.97
2022-08-05T04:24:05.416Z,101500.72
2022-08-05T04:26:24.727Z,101508.69
2022-08-05T04:28:54.686Z,101514.03
2022-08-05T04:31:27.575Z,101515.81
2022-08-05T04:34:18.751Z,101521.97
2022-08-05T04:36:58.096Z,101521.03
2022-08-05T04:39:27.924Z,101529.97
2022-08-05T04:42:00.416Z,101532.69
2022-08-05T04:44:31.652Z,101545.13
2022-08-05T04:47:09.817Z,101550.47
2022-08-05T04:50:01.474Z,101545.09
2022-08-05T04:52:33.391Z,101549.56
2022-08-05T04:55:14.008Z,101551.38
2022-08-05T04:57:51.638Z,101551.38
2022-08-05T05:00:24.312Z,101547.81
2022-08-05T05:02:54.289Z,101550.47
2022-08-05T05:05:28.585Z,101549.56
2022-08-05T05:08:02.846Z,101549.53
2022-08-05T05:10:34.020Z,101546.91
2022-08-05T05:13:06.376Z,101554.94
2022-08-05T05:15:57.560Z,101546.03
2022-08-05T05:18:28.737Z,101546.94
2022-08-05T05:21:04.367Z,101542.50
2022-08-05T05:23:39.088Z,101545.13
2022-08-05T05:26:28.644Z,101556.72
2022-08-05T05:29:14.493Z,101566.47
2022-08-05T05:31:46.208Z,101559.38
2022-08-05T05:34:21.181Z,101559.41
2022-08-05T05:36:56.391Z,101552.28
2022-08-05T05:39:26.847Z,101550.47
2022-08-05T05:42:04.338Z,101549.59
2022-08-05T05:44:37.721Z,101554.00
2022-08-05T05:47:21.714Z,101546.97
2022-08-05T05:49:56.943Z,101548.78
2022-08-05T05:52:34.655Z,101547.09
2022-08-05T05:55:13.716Z,101548.28
2022-08-05T05:57:53.009Z,101546.66
2022-08-05T06:00:31.308Z,101541.47
2022-08-05T06:03:01.359Z,101544.28
2022-08-05T06:05:31.947Z,101543.47
2022-08-05T06:08:03.811Z,101535.41
2022-08-05T06:10:36.340Z,101538.91
2022-08-05T06:13:09.575Z,101535.28
2022-08-05T06:16:29.331Z,101546.81
2022-08-05T06:18:32.318Z,101544.91
2022-08-05T06:21:07.946Z,101536.72
2022-08-05T06:23:46.840Z,101532.97
2022-08-05T06:26:23.904Z,101532.75
2022-08-05T06:28:54.745Z,101537.94
2022-08-05T06:31:32.026Z,101526.91
2022-08-05T06:34:03.022Z,101531.16
2022-08-05T06:36:58.160Z,101526.44
2022-08-05T06:39:28.039Z,101533.41
2022-08-05T06:41:59.276Z,101526.03
2022-08-05T06:44:30.237Z,101525.97
2022-08-05T06:47:03.005Z,101530.69
2022-08-05T06:50:00.093Z,101530.91
2022-08-05T06:52:36.693Z,101531.22
2022-08-05T06:55:08.723Z,101544.91
2022-08-05T06:57:57.677Z,101546.88
2022-08-05T07:00:29.640Z,101550.59
2022-08-05T07:03:02.312Z,101548.00
2022-08-05T07:05:37.689Z,101548.13
2022-08-05T07:08:11.277Z,101548.19
2022-08-05T07:10:53.351Z,101545.56
2022-08-05T07:13:56.669Z,101545.44
2022-08-05T07:17:56.763Z,101563.06
2022-08-05T07:20:10.927Z,101560.94
2022-08-05T07:22:29.011Z,101560.47
2022-08-05T07:25:23.802Z,101561.16
2022-08-05T07:27:58.445Z,101574.34
2022-08-05T07:30:34.181Z,101575.03
2022-08-05T07:33:09.030Z,101565.00
2022-08-05T07:36:04.909Z,101559.28
2022-08-05T07:38:34.938Z,101565.53
2022-08-05T07:42:08.805Z,101568.63
2022-08-05T07:43:57.776Z,101565.50
2022-08-05T07:46:28.752Z,101563.84
2022-08-05T07:49:03.125Z,101560.13
2022-08-05T07:51:53.976Z,101565.34
2022-08-05T07:54:31.668Z,101569.00
2022-08-05T07:57:22.438Z,101560.00
2022-08-05T07:59:54.097Z,101570.59
2022-08-05T08:02:31.220Z,101579.59
2022-08-05T08:05:18.842Z,101588.88
2022-08-05T08:08:00.295Z,101594.41
2022-08-05T08:10:30.810Z,101600.81
2022-08-05T08:13:01.837Z,101595.34
2022-08-05T08:16:35.791Z,101600.50
2022-08-05T08:18:21.732Z,101602.56
2022-08-05T08:21:02.729Z,101607.06
2022-08-05T08:24:02.806Z,101613.22
2022-08-05T08:26:29.418Z,101608.09
2022-08-05T08:29:21.756Z,101599.50
2022-08-05T08:31:50.668Z,101608.69
2022-08-05T08:34:30.775Z,101602.38
2022-08-05T08:37:05.267Z,101614.06
2022-08-05T08:39:38.414Z,101619.47
2022-08-05T08:42:46.930Z,101622.91
2022-08-05T08:45:21.320Z,101616.78
2022-08-05T08:48:07.517Z,101623.03
2022-08-05T08:51:07.763Z,101625.75
2022-08-05T08:53:45.217Z,101623.97
2022-08-05T08:56:18.187Z,101625.63
2022-08-05T08:58:48.648Z,101625.59
2022-08-05T09:01:19.383Z,101629.22
2022-08-05T09:03:54.362Z,101635.53
2022-08-05T09:06:29.919Z,101624.78
2022-08-05T09:09:01.728Z,101639.91
2022-08-05T09:11:52.076Z,101648.78
2022-08-05T09:14:57.955Z,101643.59
2022-08-05T09:17:43.173Z,101643.63
2022-08-05T09:20:08.413Z,101648.88
2022-08-05T09:23:18.451Z,101637.28
2022-08-05T09:26:01.307Z,101639.06
2022-08-05T09:28:37.672Z,101645.31
2022-08-05T09:31:22.440Z,101643.56
2022-08-05T09:34:01.607Z,101648.00
2022-08-05T09:36:45.923Z,101650.72
2022-08-05T09:39:27.695Z,101652.50
2022-08-05T09:42:17.377Z,101657.00
2022-08-05T09:45:03.230Z,101654.34
2022-08-05T09:47:56.473Z,101639.22
2022-08-05T09:50:44.711Z,101650.88
2022-08-05T09:53:25.895Z,101649.88
2022-08-05T09:56:13.369Z,101649.00
2022-08-05T09:58:43.692Z,101647.97
2022-08-05T10:01:31.623Z,101646.09
2022-08-05T10:04:10.662Z,101653.19
2022-08-05T10:06:41.217Z,101652.31
2022-08-05T10:09:27.329Z,101654.16
2022-08-05T10:12:18.721Z,101656.91
2022-08-05T10:15:17.305Z,101659.56
2022-08-05T10:18:10.146Z,101660.38
2022-08-05T10:20:42.816Z,101668.41
2022-08-05T10:23:34.730Z,101663.97
2022-08-05T10:26:08.219Z,101668.47
2022-08-05T10:28:46.385Z,101679.19
2022-08-05T10:32:50.604Z,101681.00
2022-08-05T10:34:11.742Z,101677.38
2022-08-05T10:36:43.979Z,101679.25
2022-08-05T10:39:24.522Z,101689.00
2022-08-05T10:42:15.755Z,101696.22
2022-08-05T10:44:49.451Z,101684.66
2022-08-05T10:47:26.973Z,101693.66
2022-08-05T10:50:20.606Z,101696.34
2022-08-05T10:53:02.726Z,101690.13
2022-08-05T10:56:03.242Z,101696.41
2022-08-05T10:58:23.671Z,101701.72
2022-08-05T11:01:13.487Z,101701.72
2022-08-05T11:04:03.380Z,101707.13
2022-08-05T11:07:00.622Z,101722.44
2022-08-05T11:09:46.559Z,101725.13
2022-08-05T11:12:50.506Z,101742.25
2022-08-05T11:15:59.546Z,101743.22
2022-08-05T11:18:34.499Z,101753.09
2022-08-05T11:21:11.737Z,101762.13
2022-08-05T11:24:05.192Z,101748.69
2022-08-05T11:26:49.472Z,101766.59
2022-08-05T11:29:40.384Z,101768.38
2022-08-05T11:32:29.231Z,101791.63
2022-08-05T11:35:00.464Z,101794.31
2022-08-05T11:38:26.248Z,101798.78
2022-08-05T11:41:34.481Z,101796.09
2022-08-05T11:44:07.080Z,101800.53
2022-08-05T11:47:09.436Z,101805.06
2022-08-05T11:49:33.870Z,101819.38
2022-08-05T11:52:11.451Z,101824.75
2022-08-05T11:54:43.546Z,101829.19
2022-08-05T11:57:24.471Z,101824.72
2022-08-05T11:59:55.912Z,101833.66
2022-08-05T12:02:33.006Z,101830.09
2022-08-05T12:05:08.144Z,101837.25
2022-08-05T12:08:09.013Z,101835.47
2022-08-05T12:10:44.961Z,101836.34
2022-08-05T12:13:47.602Z,101846.16
2022-08-05T12:16:14.599Z,101845.28
2022-08-05T12:18:49.579Z,101841.69
2022-08-05T12:21:26.800Z,101844.41
2022-08-05T12:24:05.034Z,101853.31
2022-08-05T12:26:36.892Z,101850.66
2022-08-05T12:29:11.882Z,101853.34
2022-08-05T12:31:53.619Z,101862.25
2022-08-05T12:34:28.405Z,101864.03
2022-08-05T12:36:59.928Z,101873.84
2022-08-05T12:39:37.308Z,101868.50
2022-08-05T12:42:14.767Z,101875.56
2022-08-05T12:44:48.528Z,101876.44
2022-08-05T12:47:31.057Z,101887.22
2022-08-05T12:50:06.251Z,101891.63
2022-08-05T12:52:42.198Z,101893.41
2022-08-05T12:55:25.493Z,101896.97
2022-08-05T12:58:48.882Z,101908.59
2022-08-05T13:02:01.593Z,101904.06
2022-08-05T13:03:43.228Z,101906.72
2022-08-05T13:06:19.772Z,101901.34
2022-08-05T13:08:52.401Z,101909.38
2022-08-05T13:11:59.740Z,101919.22
2022-08-05T13:14:19.533Z,101915.69
2022-08-05T13:16:56.554Z,101929.94
2022-08-05T13:19:51.680Z,101929.06
2022-08-05T13:22:29.120Z,101924.66
2022-08-05T13:25:05.415Z,101922.00
2022-08-05T13:27:39.270Z,101928.31
2022-08-05T13:30:32.978Z,101931.03
2022-08-05T13:33:04.183Z,101931.84
2022-08-05T13:35:47.579Z,101941.63
2022-08-05T13:38:30.529Z,101954.94
2022-08-05T13:41:01.504Z,101966.19
2022-08-05T13:43:44.956Z,101965.16
2022-08-05T13:46:37.800Z,101970.47
2022-08-05T13:49:15.461Z,101968.44
2022-08-05T13:51:46.393Z,101978.03
2022-08-05T13:54:17.223Z,101971.75
2022-08-05T13:56:55.310Z,101967.41
2022-08-05T13:59:27.177Z,101950.53
2022-08-05T14:02:00.298Z,101957.72
2022-08-05T14:04:50.225Z,101967.75
2022-08-05T14:07:26.538Z,101970.47
2022-08-05T14:10:19.097Z,101975.78
2022-08-05T14:12:59.512Z,101981.09
2022-08-05T14:16:05.294Z,101982.00
2022-08-05T14:18:23.458Z,101984.69
2022-08-05T14:20:56.418Z,101985.75
2022-08-05T14:23:28.813Z,101979.69
2022-08-05T14:26:06.605Z,101986.03
2022-08-05T14:28:36.393Z,101986.94
2022-08-05T14:32:02.804Z,101985.97
2022-08-05T14:34:12.462Z,101981.47
2022-08-05T14:36:44.745Z,102001.09
2022-08-05T14:39:23.595Z,101992.19
2022-08-05T14:42:19.279Z,101994.88
2022-08-05T14:44:43.381Z,102005.53
2022-08-05T14:47:13.082Z,102000.16
2022-08-05T14:49:59.410Z,102006.56
2022-08-05T14:52:51.693Z,102011.84
2022-08-05T14:55:22.599Z,102008.31
2022-08-05T14:57:54.323Z,102012.88
2022-08-05T15:00:29.387Z,102016.41
2022-08-05T15:02:59.542Z,102013.72
2022-08-05T15:05:29.793Z,102010.25
2022-08-05T15:08:57.972Z,102018.25
2022-08-05T15:11:11.574Z,102016.38
2022-08-05T15:13:46.599Z,102020.88
2022-08-05T15:16:20.120Z,102019.00
2022-08-05T15:18:52.028Z,102026.19
2022-08-05T15:21:22.366Z,102026.16
2022-08-05T15:23:56.681Z,102035.03
2022-08-05T15:26:31.706Z,102027.97
2022-08-05T15:29:02.652Z,102034.09
2022-08-05T15:31:34.918Z,102031.34
2022-08-05T15:34:31.429Z,102025.97
2022-08-05T15:36:54.660Z,102026.81
2022-08-05T15:41:01.900Z,102021.47
2022-08-05T15:42:50.369Z,102027.72
2022-08-05T15:45:07.373Z,102033.22
2022-08-05T15:47:39.670Z,102032.25
2022-08-05T15:50:15.492Z,102030.44
2022-08-05T15:52:52.761Z,102025.97
2022-08-05T15:56:01.380Z,102027.84
2022-08-05T15:58:17.528Z,102026.88
2022-08-05T16:00:50.955Z,102028.72
2022-08-05T16:03:34.396Z,102035.88
2022-08-05T16:06:04.742Z,102034.97
2022-08-05T16:08:34.683Z,102046.56
2022-08-05T16:11:07.952Z,102047.41
2022-08-05T16:13:38.022Z,102038.44
2022-08-05T16:16:10.717Z,102042.97
2022-08-05T16:18:52.314Z,102042.03
2022-08-05T16:21:58.844Z,102042.91
2022-08-05T16:24:39.507Z,102043.84
2022-08-05T16:27:07.337Z,102050.13
2022-08-05T16:29:37.977Z,102045.50
2022-08-05T16:32:09.949Z,102055.31
2022-08-05T16:34:41.715Z,102050.03
2022-08-05T16:38:02.383Z,102053.56
2022-08-05T16:40:06.133Z,102056.97
2022-08-05T16:42:39.467Z,102065.03
2022-08-05T16:46:05.266Z,102067.72
2022-08-05T16:48:02.977Z,102068.44
2022-08-05T16:50:32.935Z,102070.19
2022-08-05T16:53:12.283Z,102074.59
2022-08-05T16:55:52.048Z,102072.78
2022-08-05T16:58:24.364Z,102078.06
2022-08-05T17:00:55.335Z,102084.28
2022-08-05T17:03:25.186Z,102079.72
2022-08-05T17:05:59.499Z,102083.16
2022-08-05T17:08:36.458Z,102090.28
2022-08-05T17:11:19.386Z,102089.38
2022-08-05T17:13:51.731Z,102090.16
2022-08-05T17:16:33.349Z,102096.38
2022-08-05T17:19:07.828Z,102091.81
2022-08-05T17:21:40.714Z,102098.88
2022-08-05T17:24:28.255Z,102094.25
2022-08-05T17:27:01.753Z,102098.50
2022-08-05T17:29:41.084Z,102101.16
2022-08-05T17:32:17.319Z,102098.59
2022-08-05T17:34:48.470Z,102109.28
2022-08-05T17:37:39.824Z,102104.81
2022-08-05T17:40:12.794Z,102103.84
2022-08-05T17:42:50.976Z,102102.03
2022-08-05T17:45:38.292Z,102099.34
2022-08-05T17:48:09.204Z,102104.66
2022-08-05T17:50:40.953Z,102104.72
2022-08-05T17:53:11.180Z,102109.13
2022-08-05T17:55:41.574Z,102118.00
2022-08-05T17:58:13.346Z,102116.91
2022-08-05T18:00:50.746Z,102117.88
2022-08-05T18:06:15.477Z,102124.78
2022-08-05T18:08:52.685Z,102134.59
2022-08-05T18:11:32.559Z,102134.69
2022-08-05T18:14:06.671Z,102134.72
2022-08-05T18:16:43.719Z,102135.53
2022-08-05T18:19:22.639Z,102139.97
2022-08-05T18:22:08.832Z,102135.53
2022-08-05T18:24:40.935Z,102134.63
2022-08-05T18:27:18.627Z,102143.44
2022-08-05T18:29:54.201Z,102147.84
2022-08-05T18:32:28.214Z,102149.59
2022-08-05T18:34:59.758Z,102154.03
2022-08-05T18:37:34.399Z,102163.69
2022-08-05T18:40:34.477Z,102163.63
2022-08-05T18:43:02.570Z,102160.81
2022-08-05T18:45:41.732Z,102156.31
2022-08-05T18:48:30.785Z,102164.38
2022-08-05T18:52:06.505Z,102164.28
2022-08-05T18:54:05.647Z,102165.13
2022-08-05T18:56:35.451Z,102170.47
2022-08-05T18:59:44.356Z,102181.03
2022-08-05T19:01:57.278Z,102181.00
2022-08-05T19:04:31.183Z,102180.00
2022-08-05T19:07:02.691Z,102183.53
2022-08-05T19:09:39.181Z,102180.75
2022-08-05T19:12:11.529Z,102182.50
2022-08-05T19:15:00.722Z,102186.09
2022-08-05T19:17:59.476Z,102178.91
2022-08-05T19:20:23.902Z,102178.78
2022-08-05T19:22:53.623Z,102178.69
2022-08-05T19:25:30.076Z,102185.75
2022-08-05T19:28:00.485Z,102183.09
2022-08-05T19:30:30.476Z,102188.31
2022-08-05T19:33:00.242Z,102193.56
2022-08-05T19:35:56.709Z,102197.88
2022-08-05T19:38:26.821Z,102196.78
2022-08-05T19:40:56.676Z,102204.53
2022-08-05T19:44:04.134Z,102199.94
2022-08-05T19:46:16.820Z,102217.78
2022-08-05T19:49:01.207Z,102215.91
2022-08-05T19:52:04.589Z,102211.44
2022-08-05T19:54:31.153Z,102221.19
2022-08-05T19:57:02.600Z,102227.53
2022-08-05T19:59:54.764Z,102231.03
2022-08-05T20:02:27.091Z,102225.66
2022-08-05T20:04:58.407Z,102238.97
2022-08-05T20:07:38.925Z,102235.34
2022-08-05T20:10:22.371Z,102237.97
2022-08-05T20:12:55.214Z,102243.97
2022-08-05T20:15:51.723Z,102240.28
2022-08-05T20:18:33.699Z,102248.09
2022-08-05T20:21:06.496Z,102246.19
2022-08-05T20:23:51.353Z,102247.91
2022-08-05T20:26:25.294Z,102249.56
2022-08-05T20:28:57.616Z,102251.28
2022-08-05T20:31:42.738Z,102253.81
2022-08-05T20:34:21.251Z,102261.75
2022-08-05T20:36:52.909Z,102259.97
2022-08-05T20:39:25.922Z,102266.19
2022-08-05T20:42:05.633Z,102270.50
2022-08-05T20:44:38.224Z,102267.69
2022-08-05T20:47:09.583Z,102272.84
2022-08-05T20:49:40.470Z,102274.59
2022-08-05T20:52:12.216Z,102276.31
2022-08-05T20:55:15.904Z,102282.41
2022-08-05T20:57:43.301Z,102289.44
2022-08-05T21:00:40.941Z,102294.75
2022-08-05T21:03:08.370Z,102299.06
2022-08-05T21:05:53.637Z,102301.59
2022-08-05T21:08:26.505Z,102304.13
2022-08-05T21:11:00.323Z,102303.94
2022-08-05T21:13:47.896Z,102309.25
2022-08-05T21:16:22.354Z,102311.88
2022-08-05T21:19:00.444Z,102315.47
2022-08-05T21:21:39.230Z,102313.72
2022-08-05T21:24:15.386Z,102311.06
2022-08-05T21:26:58.026Z,102317.28
2022-08-05T21:29:31.913Z,102319.13
2022-08-05T21:32:02.631Z,102318.31
2022-08-05T21:34:33.070Z,102323.66
2022-08-05T21:37:05.484Z,102319.16
2022-08-05T21:39:40.323Z,102323.66
2022-08-05T21:42:30.626Z,102323.75
2022-08-05T21:45:03.693Z,102328.97
2022-08-05T21:47:57.231Z,102327.19
2022-08-05T21:50:23.557Z,102330.84
2022-08-05T21:52:53.349Z,102330.84
2022-08-05T21:56:01.441Z,102343.16
2022-08-05T21:58:15.788Z,102334.16
2022-08-05T22:00:51.245Z,102330.53
2022-08-05T22:03:48.529Z,102334.91
2022-08-05T22:06:11.242Z,102337.56
2022-08-05T22:08:42.534Z,102335.72
2022-08-05T22:11:15.440Z,102335.59
2022-08-05T22:14:33.778Z,102333.66
2022-08-05T22:16:51.704Z,102330.97
2022-08-05T22:20:02.847Z,102339.66
2022-08-05T22:22:14.513Z,102344.06
2022-08-05T22:24:56.850Z,102343.09
2022-08-05T22:28:08.177Z,102341.06
2022-08-05T22:30:55.287Z,102354.34
2022-08-05T22:33:58.003Z,102352.47
2022-08-05T22:36:17.850Z,102364.81
2022-08-05T22:38:49.360Z,102357.66
2022-08-05T22:42:04.946Z,102364.75
2022-08-05T22:44:11.999Z,102360.34
2022-08-05T22:46:45.170Z,102369.22
2022-08-05T22:49:56.265Z,102376.97
2022-08-05T22:52:15.459Z,102378.72
2022-08-05T22:54:55.590Z,102385.88
2022-08-05T22:57:25.731Z,102387.78
2022-08-05T22:59:56.238Z,102393.81
2022-08-05T23:02:30.146Z,102392.72
2022-08-05T23:05:01.465Z,102394.34
2022-08-05T23:07:45.068Z,102389.66
2022-08-05T23:10:19.732Z,102391.38
2022-08-05T23:12:51.374Z,102397.38
2022-08-05T23:15:29.241Z,102402.72
2022-08-05T23:18:03.195Z,102391.94
2022-08-05T23:20:37.374Z,102390.06
2022-08-05T23:23:08.800Z,102403.25
2022-08-05T23:25:52.145Z,102404.94
2022-08-05T23:28:28.626Z,102403.91
2022-08-05T23:31:02.350Z,102406.69
2022-08-05T23:34:05.867Z,102412.03
2022-08-05T23:36:40.178Z,102413.75
2022-08-05T23:39:16.621Z,102419.03
2022-08-05T23:41:53.943Z,102410.94
2022-08-05T23:44:27.807Z,102416.25
2022-08-05T23:47:02.305Z,102419.69
2022-08-05T23:49:43.234Z,102419.69
2022-08-05T23:52:28.363Z,102420.38
2022-08-05T23:54:59.801Z,102408.75
2022-08-05T23:57:30.208Z,102415.84
